Bargerville, Illinois
Current Conditions -  °F | °C
As of 12:55 PM on Friday 31 Oct 2014 (Local Time) from KM30 Reporting Station
Scattered Clouds Scattered Clouds  
Wind Chill: 41°   Ceiling: Unl
Heat Index: 49°   Visibility: 10mi
Dew Point: 28°   Wind: 23mph
Humidity: 45%   Direction: 320°NW
Pressure: 30.16"   Gusts: 33mph
Location:  37.2288°N, 88.7044°W
Report Text: KM30 311755Z AUTO 32020G29KT 10SM SCT047 09/M02 A3016 RMK AO2 T00921021 10110 20085
Loading
Personal Weather Stations






























Interactive Weather Map
Tropical Storm Tracking
New forecast layout! Learn more

10-Day Weather Forecast

Advertisements
Track Severe Weather on mobile